createdAt,value
2019-03-15T00:00:55.683Z,98138.49
2019-03-15T00:03:24.606Z,98132.61
2019-03-15T00:05:52.612Z,98145.43
2019-03-15T00:08:21.019Z,98135.45
2019-03-15T00:10:49.044Z,98143.98
2019-03-15T00:13:17.005Z,98145.59
2019-03-15T00:15:44.902Z,98140.06
2019-03-15T00:18:13.105Z,98145.30
2019-03-15T00:20:41.234Z,98155.16
2019-03-15T00:23:09.156Z,98154.33
2019-03-15T00:25:37.100Z,98152.02
2019-03-15T00:28:05.170Z,98148.23
2019-03-15T00:30:33.290Z,98157.10
2019-03-15T00:33:01.346Z,98159.56
2019-03-15T00:35:29.381Z,98161.18
2019-03-15T00:37:57.347Z,98168.08
2019-03-15T00:40:25.367Z,98164.76
2019-03-15T00:42:53.467Z,98161.78
2019-03-15T00:45:21.485Z,98159.66
2019-03-15T00:47:49.633Z,98163.77
2019-03-15T00:50:17.758Z,98172.94
2019-03-15T00:52:45.797Z,98178.18
2019-03-15T00:55:15.040Z,98179.98
2019-03-15T00:57:42.891Z,98192.00
2019-03-15T01:00:12.321Z,98179.98
2019-03-15T01:02:40.448Z,98177.03
2019-03-15T01:05:08.597Z,98185.91
2019-03-15T01:07:36.715Z,98184.09
2019-03-15T01:10:04.948Z,98185.94
2019-03-15T01:12:33.033Z,98178.72
2019-03-15T01:15:01.074Z,98182.17
2019-03-15T01:17:29.114Z,98175.88
2019-03-15T01:19:57.080Z,98191.99
2019-03-15T01:22:25.187Z,98193.64
2019-03-15T01:24:53.245Z,98187.23
2019-03-15T01:27:21.251Z,98187.02
2019-03-15T01:29:49.519Z,98185.89
2019-03-15T01:32:17.611Z,98193.27
2019-03-15T01:34:45.651Z,98195.22
2019-03-15T01:37:13.792Z,98200.26
2019-03-15T01:39:41.662Z,98204.72
2019-03-15T01:42:09.675Z,98208.15
2019-03-15T01:44:37.778Z,98213.75
2019-03-15T01:47:05.912Z,98220.50
2019-03-15T01:49:33.875Z,98212.28
2019-03-15T01:52:01.896Z,98226.42
2019-03-15T01:54:29.819Z,98228.05
2019-03-15T01:57:10.418Z,98230.00
2019-03-15T01:59:38.405Z,98234.62
2019-03-15T02:02:06.536Z,98245.94
2019-03-15T02:04:34.592Z,98249.75
2019-03-15T02:07:02.711Z,98254.70
2019-03-15T02:09:30.571Z,98261.30
2019-03-15T02:11:58.507Z,98251.06
2019-03-15T02:14:26.354Z,98253.70
2019-03-15T02:16:54.444Z,98264.03
2019-03-15T02:19:22.890Z,98265.84
2019-03-15T02:21:50.992Z,98273.88
2019-03-15T02:24:18.957Z,98274.07
2019-03-15T02:26:48.483Z,98283.43
2019-03-15T02:29:16.699Z,98283.96
2019-03-15T02:31:44.713Z,98288.55
2019-03-15T02:34:12.779Z,98293.11
2019-03-15T02:36:40.937Z,98295.25
2019-03-15T02:39:08.859Z,98306.63
2019-03-15T02:41:36.999Z,98305.00
2019-03-15T02:44:05.256Z,98314.36
2019-03-15T02:46:33.366Z,98321.59
2019-03-15T02:49:01.539Z,98323.55
2019-03-15T02:51:29.521Z,98335.56
2019-03-15T02:53:57.338Z,98341.48
2019-03-15T02:56:25.507Z,98350.03
2019-03-15T02:58:54.191Z,98348.04
2019-03-15T03:01:22.413Z,98347.53
2019-03-15T03:03:50.514Z,98345.07
2019-03-15T03:06:18.457Z,98360.53
2019-03-15T03:08:48.464Z,98367.41
2019-03-15T03:11:16.499Z,98362.18
2019-03-15T03:13:44.583Z,98367.77
2019-03-15T03:16:12.662Z,98379.11
2019-03-15T03:18:40.714Z,98390.47
2019-03-15T03:21:08.736Z,98385.87
2019-03-15T03:23:36.846Z,98391.47
2019-03-15T03:26:05.137Z,98414.14
2019-03-15T03:28:33.101Z,98415.75
2019-03-15T03:31:01.140Z,98409.19
2019-03-15T03:33:29.087Z,98403.76
2019-03-15T03:35:57.012Z,98409.54
2019-03-15T03:38:25.105Z,98420.05
2019-03-15T03:40:53.174Z,98423.81
2019-03-15T03:43:21.289Z,98425.66
2019-03-15T03:45:49.305Z,98436.98
2019-03-15T03:48:17.414Z,98440.13
2019-03-15T03:50:45.467Z,98443.73
2019-03-15T03:53:13.563Z,98435.18
2019-03-15T03:55:42.226Z,98439.13
2019-03-15T03:58:10.261Z,98447.67
2019-03-15T04:00:38.313Z,98442.25
2019-03-15T04:03:06.429Z,98457.55
2019-03-15T04:05:36.868Z,98454.27
2019-03-15T04:08:05.447Z,98466.41
2019-03-15T04:10:33.508Z,98479.56
2019-03-15T04:13:01.644Z,98479.39
2019-03-15T04:15:29.679Z,98493.38
2019-03-15T04:17:57.759Z,98497.66
2019-03-15T04:20:25.701Z,98498.64
2019-03-15T04:22:55.400Z,98512.45
2019-03-15T04:25:23.601Z,98515.88
2019-03-15T04:27:51.466Z,98518.36
2019-03-15T04:30:19.450Z,98534.62
2019-03-15T04:32:47.666Z,98534.47
2019-03-15T04:35:15.725Z,98535.94
2019-03-15T04:37:43.742Z,98544.66
2019-03-15T04:40:11.839Z,98552.22
2019-03-15T04:42:39.875Z,98555.52
2019-03-15T04:45:08.186Z,98560.59
2019-03-15T04:47:36.150Z,98561.58
2019-03-15T04:50:04.665Z,98565.00
2019-03-15T04:52:32.597Z,98570.59
2019-03-15T04:55:00.818Z,98572.73
2019-03-15T04:57:28.880Z,98581.80
2019-03-15T04:59:56.904Z,98584.40
2019-03-15T05:02:24.853Z,98589.36
2019-03-15T05:04:52.982Z,98578.48
2019-03-15T05:07:21.139Z,98599.70
2019-03-15T05:09:49.271Z,98592.28
2019-03-15T05:12:18.133Z,98612.38
2019-03-15T05:14:46.232Z,98619.28
2019-03-15T05:17:14.446Z,98619.28
2019-03-15T05:19:42.544Z,98627.50
2019-03-15T05:22:10.512Z,98626.46
2019-03-15T05:24:38.630Z,98630.27
2019-03-15T05:27:06.642Z,98645.25
2019-03-15T05:29:34.773Z,98635.08
2019-03-15T05:32:02.829Z,98629.48
2019-03-15T05:34:30.832Z,98643.30
2019-03-15T05:36:58.852Z,98638.52
2019-03-15T05:39:27.751Z,98639.34
2019-03-15T05:41:55.753Z,98636.73
2019-03-15T05:44:23.849Z,98637.05
2019-03-15T05:46:52.110Z,98647.58
2019-03-15T05:49:20.053Z,98649.05
2019-03-15T05:51:47.901Z,98638.05
2019-03-15T05:54:15.947Z,98644.62
2019-03-15T05:56:43.980Z,98641.00
2019-03-15T05:59:12.084Z,98652.84
2019-03-15T06:01:40.247Z,98660.07
2019-03-15T06:04:08.345Z,98666.33
2019-03-15T06:06:36.368Z,98655.80
2019-03-15T06:09:05.620Z,98668.63
2019-03-15T06:11:33.697Z,98698.90
2019-03-15T06:14:01.781Z,98682.78
2019-03-15T06:16:29.780Z,98678.51
2019-03-15T06:18:57.970Z,98692.98
2019-03-15T06:21:26.024Z,98679.50
2019-03-15T06:23:54.148Z,98681.63
2019-03-15T06:26:22.095Z,98681.95
2019-03-15T06:28:50.591Z,98698.59
2019-03-15T06:31:18.668Z,98685.09
2019-03-15T06:33:46.728Z,98681.15
2019-03-15T06:36:14.748Z,98697.09
2019-03-15T06:38:42.625Z,98697.09
2019-03-15T06:41:10.738Z,98705.83
2019-03-15T06:43:38.790Z,98701.03
2019-03-15T06:46:06.925Z,98701.37
2019-03-15T06:48:35.026Z,98705.65
2019-03-15T06:51:03.178Z,98712.23
2019-03-15T06:53:31.199Z,98711.09
2019-03-15T06:55:59.422Z,98709.12
2019-03-15T06:58:27.266Z,98720.45
2019-03-15T07:00:55.329Z,98722.27
2019-03-15T07:03:23.254Z,98729.33
2019-03-15T07:05:51.469Z,98715.38
2019-03-15T07:08:19.500Z,98732.15
2019-03-15T07:10:47.634Z,98740.20
2019-03-15T07:13:15.562Z,98723.93
2019-03-15T07:15:44.485Z,98726.23
2019-03-15T07:18:12.687Z,98724.59
2019-03-15T07:20:40.800Z,98741.04
2019-03-15T07:23:08.820Z,98744.34
2019-03-15T07:25:36.931Z,98731.32
2019-03-15T07:28:04.931Z,98742.55
2019-03-15T07:30:33.060Z,98734.80
2019-03-15T07:33:01.003Z,98742.03
2019-03-15T07:35:29.103Z,98739.73
2019-03-15T07:37:57.145Z,98745.66
2019-03-15T07:40:25.081Z,98737.09
2019-03-15T07:43:04.572Z,98748.95
2019-03-15T07:45:42.907Z,98746.64
2019-03-15T07:48:21.695Z,98745.00
2019-03-15T07:50:41.279Z,98754.55
2019-03-15T07:53:09.240Z,98757.36
2019-03-15T07:55:37.337Z,98751.25
2019-03-15T07:58:05.766Z,98754.53
2019-03-15T08:00:34.374Z,98769.53
2019-03-15T08:03:02.440Z,98765.40
2019-03-15T08:05:30.431Z,98771.50
2019-03-15T08:07:58.472Z,98767.70
2019-03-15T08:10:26.477Z,98770.34
2019-03-15T08:12:55.224Z,98777.25
2019-03-15T08:15:23.231Z,98783.38
2019-03-15T08:17:51.190Z,98769.69
2019-03-15T08:20:19.314Z,98785.17
2019-03-15T08:22:47.398Z,98784.18
2019-03-15T08:25:15.514Z,98786.33
2019-03-15T08:27:43.482Z,98784.48
2019-03-15T08:30:12.060Z,98794.69
2019-03-15T08:32:43.509Z,98804.73
2019-03-15T08:35:10.344Z,98791.73
2019-03-15T08:37:38.457Z,98799.44
2019-03-15T08:40:07.563Z,98805.23
2019-03-15T08:42:35.659Z,98810.17
2019-03-15T08:45:04.626Z,98799.92
2019-03-15T08:47:34.847Z,98821.53
2019-03-15T08:50:03.560Z,98814.12
2019-03-15T08:52:31.488Z,98804.21
2019-03-15T08:55:05.140Z,98826.63
2019-03-15T08:57:29.449Z,98818.36
2019-03-15T08:59:58.027Z,98832.21
2019-03-15T09:02:27.094Z,98823.45
2019-03-15T09:04:55.035Z,98816.72
2019-03-15T09:07:22.969Z,98823.30
2019-03-15T09:09:50.936Z,98836.16
2019-03-15T09:12:19.036Z,98822.11
2019-03-15T09:14:46.964Z,98828.19
2019-03-15T09:17:14.883Z,98822.70
2019-03-15T09:19:42.886Z,98822.55
2019-03-15T09:22:10.994Z,98829.63
2019-03-15T09:24:39.019Z,98817.72
2019-03-15T09:27:10.255Z,98831.22
2019-03-15T09:29:36.889Z,98820.16
2019-03-15T09:32:09.059Z,98827.09
2019-03-15T09:34:35.023Z,98819.30
2019-03-15T09:37:03.150Z,98819.75
2019-03-15T09:39:31.191Z,98816.62
2019-03-15T09:41:59.196Z,98815.56
2019-03-15T09:44:27.235Z,98818.83
2019-03-15T09:46:55.293Z,98819.42
2019-03-15T09:49:25.541Z,98831.14
2019-03-15T09:51:53.531Z,98817.29
2019-03-15T09:54:21.449Z,98826.91
2019-03-15T09:56:49.552Z,98824.48
2019-03-15T09:59:19.401Z,98825.30
2019-03-15T10:01:47.634Z,98839.91
2019-03-15T10:04:17.187Z,98807.77
2019-03-15T10:06:45.589Z,98822.89
2019-03-15T10:09:13.561Z,98824.39
2019-03-15T10:11:41.685Z,98833.52
2019-03-15T10:14:09.652Z,98833.36
2019-03-15T10:16:37.671Z,98836.06
2019-03-15T10:19:06.586Z,98806.48
2019-03-15T10:21:34.715Z,98818.75
2019-03-15T10:24:02.751Z,98817.86
2019-03-15T10:26:30.825Z,98822.43
2019-03-15T10:28:58.682Z,98824.23
2019-03-15T10:31:27.043Z,98827.84
2019-03-15T10:33:55.250Z,98823.91
2019-03-15T10:36:23.213Z,98853.30
2019-03-15T10:38:51.325Z,98832.77
2019-03-15T10:41:19.164Z,98840.31
2019-03-15T10:43:47.142Z,98841.47
2019-03-15T10:46:15.841Z,98828.65
2019-03-15T10:48:43.841Z,98825.56
2019-03-15T10:51:11.832Z,98831.01
2019-03-15T10:53:39.850Z,98862.25
2019-03-15T10:56:07.793Z,98826.44
2019-03-15T10:58:35.677Z,98824.22
2019-03-15T11:01:03.738Z,98817.88
2019-03-15T11:03:32.654Z,98822.12
2019-03-15T11:06:00.586Z,98823.03
2019-03-15T11:08:28.694Z,98823.84
2019-03-15T11:10:56.612Z,98830.77
2019-03-15T11:13:25.767Z,98830.84
2019-03-15T11:15:54.393Z,98810.42
2019-03-15T11:18:22.558Z,98810.78
2019-03-15T11:20:50.677Z,98835.08
2019-03-15T11:23:18.806Z,98834.66
2019-03-15T11:25:46.758Z,98843.80
2019-03-15T11:28:14.981Z,98841.27
2019-03-15T11:30:43.916Z,98848.94
2019-03-15T11:33:11.962Z,98842.00
2019-03-15T11:35:39.939Z,98845.97
2019-03-15T11:38:08.577Z,98830.65
2019-03-15T11:40:38.192Z,98842.08
2019-03-15T11:43:06.607Z,98837.11
2019-03-15T11:45:34.728Z,98859.48
2019-03-15T11:48:04.313Z,98844.41
2019-03-15T11:50:32.943Z,98846.81
2019-03-15T11:53:01.332Z,98842.47
2019-03-15T11:55:29.357Z,98842.59
2019-03-15T11:57:57.484Z,98841.55
2019-03-15T12:00:25.663Z,98826.72
2019-03-15T12:02:53.787Z,98841.47
2019-03-15T12:05:22.344Z,98827.13
2019-03-15T12:07:50.535Z,98843.56
2019-03-15T12:10:18.563Z,98844.20
2019-03-15T12:12:46.573Z,98843.44
2019-03-15T12:15:14.613Z,98826.30
2019-03-15T12:17:42.693Z,98842.86
2019-03-15T12:20:10.829Z,98835.15
2019-03-15T12:22:38.760Z,98838.41
2019-03-15T12:25:14.325Z,98821.28
2019-03-15T12:27:42.328Z,98822.93
2019-03-15T12:30:10.369Z,98836.30
2019-03-15T12:32:38.329Z,98819.22
2019-03-15T12:35:08.466Z,98826.94
2019-03-15T12:37:36.496Z,98830.98
2019-03-15T12:40:05.388Z,98809.77
2019-03-15T12:42:33.310Z,98819.17
2019-03-15T12:45:01.475Z,98803.87
2019-03-15T12:47:30.009Z,98816.91
2019-03-15T12:49:58.009Z,98802.61
2019-03-15T12:52:25.931Z,98805.67
2019-03-15T12:54:53.898Z,98804.09
2019-03-15T12:57:21.941Z,98810.09
2019-03-15T12:59:50.055Z,98807.38
2019-03-15T13:02:20.317Z,98801.22
2019-03-15T13:04:51.939Z,98803.34
2019-03-15T13:07:18.941Z,98786.17
2019-03-15T13:09:47.015Z,98793.27
2019-03-15T13:12:14.939Z,98788.86
2019-03-15T13:14:42.961Z,98786.53
2019-03-15T13:17:11.375Z,98773.08
2019-03-15T13:19:39.267Z,98766.23
2019-03-15T13:22:07.195Z,98766.23
2019-03-15T13:24:35.296Z,98770.84
2019-03-15T13:27:08.036Z,98787.34
2019-03-15T13:29:36.173Z,98781.16
2019-03-15T13:32:04.294Z,98780.84
2019-03-15T13:34:32.411Z,98784.18
2019-03-15T13:37:00.469Z,98783.03
2019-03-15T13:39:28.461Z,98783.03
2019-03-15T13:41:56.326Z,98777.29
2019-03-15T13:44:26.226Z,98779.24
2019-03-15T13:46:55.051Z,98779.40
2019-03-15T13:49:23.057Z,98774.58
2019-03-15T13:51:50.992Z,98774.80
2019-03-15T13:54:19.002Z,98773.40
2019-03-15T13:56:48.476Z,98770.19
2019-03-15T13:59:16.614Z,98770.75
2019-03-15T14:01:44.657Z,98766.55
2019-03-15T14:04:12.649Z,98763.66
2019-03-15T14:06:46.541Z,98762.70
2019-03-15T14:09:14.640Z,98758.98
2019-03-15T14:11:42.667Z,98762.02
2019-03-15T14:14:10.647Z,98757.73
2019-03-15T14:16:38.522Z,98744.86
2019-03-15T14:19:06.753Z,98742.90
2019-03-15T14:21:34.865Z,98737.08
2019-03-15T14:24:03.069Z,98757.59
2019-03-15T14:26:30.999Z,98732.36
2019-03-15T14:29:09.372Z,98726.75
2019-03-15T14:31:37.198Z,98727.44
2019-03-15T14:34:05.217Z,98723.32
2019-03-15T14:36:33.151Z,98720.67
2019-03-15T14:39:01.490Z,98718.13
2019-03-15T14:41:29.675Z,98719.28
2019-03-15T14:43:57.754Z,98713.34
2019-03-15T14:46:25.747Z,98715.75
2019-03-15T14:48:53.729Z,98715.56
2019-03-15T14:51:21.919Z,98704.41
2019-03-15T14:53:49.842Z,98692.86
2019-03-15T14:56:17.882Z,98689.44
2019-03-15T14:58:45.863Z,98695.31
2019-03-15T15:01:13.970Z,98695.31
2019-03-15T15:03:41.900Z,98701.55
2019-03-15T15:06:09.994Z,98684.52
2019-03-15T15:08:37.955Z,98677.06
2019-03-15T15:11:05.953Z,98676.50
2019-03-15T15:13:34.010Z,98680.41
2019-03-15T15:16:02.171Z,98668.17
2019-03-15T15:18:30.176Z,98671.27
2019-03-15T15:20:58.410Z,98663.70
2019-03-15T15:23:26.386Z,98676.29
2019-03-15T15:25:54.407Z,98665.10
2019-03-15T15:28:22.448Z,98659.28
2019-03-15T15:30:50.575Z,98669.19
2019-03-15T15:33:19.334Z,98657.74
2019-03-15T15:35:47.451Z,98650.87
2019-03-15T15:38:15.412Z,98648.22
2019-03-15T15:40:43.419Z,98644.98
2019-03-15T15:43:11.773Z,98621.48
2019-03-15T15:45:39.886Z,98621.48
2019-03-15T15:48:08.009Z,98619.59
2019-03-15T15:50:36.985Z,98635.67
2019-03-15T15:53:05.843Z,98635.67
2019-03-15T15:55:34.037Z,98635.22
2019-03-15T15:58:02.074Z,98636.30
2019-03-15T16:00:30.077Z,98602.48
2019-03-15T16:02:58.129Z,98602.48
2019-03-15T16:05:26.166Z,98600.11
2019-03-15T16:07:56.556Z,98600.42
2019-03-15T16:10:25.529Z,98576.42
2019-03-15T16:12:53.512Z,98576.42
2019-03-15T16:15:21.731Z,98576.98
2019-03-15T16:17:49.808Z,98574.58
2019-03-15T16:20:17.809Z,98570.86
2019-03-15T16:22:45.983Z,98569.73
2019-03-15T16:25:14.125Z,98573.53
2019-03-15T16:27:42.015Z,98576.11
2019-03-15T16:30:11.352Z,98575.55
2019-03-15T16:32:39.394Z,98562.80
2019-03-15T16:35:09.164Z,98556.63
2019-03-15T16:37:37.165Z,98564.36
2019-03-15T16:40:05.590Z,98561.71
2019-03-15T16:42:33.602Z,98549.62
2019-03-15T16:45:01.541Z,98541.05
2019-03-15T16:47:29.575Z,98551.89
2019-03-15T16:49:57.571Z,98538.66
2019-03-15T16:52:25.484Z,98541.35
2019-03-15T16:54:53.535Z,98531.03
2019-03-15T16:57:21.571Z,98526.75
2019-03-15T16:59:49.641Z,98527.68
2019-03-15T17:02:17.779Z,98518.81
2019-03-15T17:04:46.252Z,98525.55
2019-03-15T17:07:15.166Z,98532.72
2019-03-15T17:09:43.120Z,98547.92
2019-03-15T17:12:11.343Z,98556.50
2019-03-15T17:14:39.315Z,98541.98
2019-03-15T17:17:07.432Z,98543.63
2019-03-15T17:19:36.268Z,98537.36
2019-03-15T17:22:05.136Z,98552.00
2019-03-15T17:24:33.084Z,98546.64
2019-03-15T17:27:01.189Z,98552.83
2019-03-15T17:29:29.069Z,98552.63
2019-03-15T17:31:58.100Z,98550.42
2019-03-15T17:34:26.038Z,98548.58
2019-03-15T17:37:06.177Z,98545.04
2019-03-15T17:39:23.900Z,98548.15
2019-03-15T17:41:52.186Z,98540.47
2019-03-15T17:44:20.187Z,98535.88
2019-03-15T17:46:48.164Z,98524.89
2019-03-15T17:49:16.176Z,98524.83
2019-03-15T17:51:44.352Z,98531.88
2019-03-15T17:54:12.385Z,98536.95
2019-03-15T17:56:40.486Z,98495.54
2019-03-15T17:59:12.747Z,98495.39
2019-03-15T18:01:38.517Z,98506.30
2019-03-15T18:04:06.703Z,98475.27
2019-03-15T18:06:43.834Z,98472.83
2019-03-15T18:09:11.779Z,98465.33
2019-03-15T18:11:39.900Z,98450.47
2019-03-15T18:14:07.916Z,98432.28
2019-03-15T18:16:35.962Z,98440.73
2019-03-15T18:19:04.047Z,98438.37
2019-03-15T18:21:32.156Z,98425.81
2019-03-15T18:24:01.855Z,98419.78
2019-03-15T18:26:30.608Z,98410.91
2019-03-15T18:28:58.619Z,98421.51
2019-03-15T18:31:29.894Z,98424.55
2019-03-15T18:33:57.923Z,98429.13
2019-03-15T18:36:25.997Z,98430.76
2019-03-15T18:38:54.100Z,98424.13
2019-03-15T18:41:22.757Z,98435.04
2019-03-15T18:43:50.928Z,98409.87
2019-03-15T18:46:18.972Z,98414.78
2019-03-15T18:48:46.972Z,98408.48
2019-03-15T18:51:15.075Z,98413.72
2019-03-15T18:53:43.091Z,98396.02
2019-03-15T18:56:11.336Z,98383.22
2019-03-15T18:58:39.733Z,98401.77
2019-03-15T19:01:07.676Z,98379.80
2019-03-15T19:03:35.777Z,98366.21
2019-03-15T19:06:03.831Z,98363.17
2019-03-15T19:08:31.851Z,98353.28
2019-03-15T19:10:59.938Z,98371.09
2019-03-15T19:13:28.284Z,98369.45
2019-03-15T19:15:56.321Z,98371.61
2019-03-15T19:18:24.313Z,98370.40
2019-03-15T19:20:52.448Z,98372.78
2019-03-15T19:23:20.703Z,98368.45
2019-03-15T19:25:49.373Z,98358.89
2019-03-15T19:28:17.387Z,98366.23
2019-03-15T19:30:45.437Z,98357.30
2019-03-15T19:33:13.450Z,98353.39
2019-03-15T19:35:41.307Z,98350.84
2019-03-15T19:38:09.218Z,98345.05
2019-03-15T19:40:49.629Z,98350.39
2019-03-15T19:43:18.342Z,98357.68
2019-03-15T19:45:46.399Z,98351.12
2019-03-15T19:48:14.371Z,98349.81
2019-03-15T19:50:42.290Z,98349.01
2019-03-15T19:53:10.194Z,98349.17
2019-03-15T19:55:38.128Z,98346.63
2019-03-15T19:58:06.729Z,98333.61
2019-03-15T20:00:34.792Z,98325.25
2019-03-15T20:03:04.204Z,98329.22
2019-03-15T20:05:32.271Z,98349.30
2019-03-15T20:08:01.986Z,98387.44
2019-03-15T20:10:30.030Z,98367.21
2019-03-15T20:12:58.277Z,98367.58
2019-03-15T20:15:26.215Z,98378.23
2019-03-15T20:17:54.491Z,98402.97
2019-03-15T20:20:22.621Z,98389.32
2019-03-15T20:22:50.613Z,98387.48
2019-03-15T20:25:19.506Z,98379.00
2019-03-15T20:27:47.595Z,98375.90
2019-03-15T20:30:21.500Z,98381.38
2019-03-15T20:32:45.985Z,98380.28
2019-03-15T20:35:14.110Z,98391.11
2019-03-15T20:37:42.256Z,98387.47
2019-03-15T20:40:10.524Z,98383.13
2019-03-15T20:42:38.606Z,98374.68
2019-03-15T20:45:08.427Z,98392.80
2019-03-15T20:47:36.521Z,98409.34
2019-03-15T20:50:05.251Z,98403.53
2019-03-15T20:52:33.301Z,98377.12
2019-03-15T20:55:01.402Z,98389.16
2019-03-15T20:57:29.369Z,98407.18
2019-03-15T20:59:57.503Z,98394.80
2019-03-15T21:02:25.575Z,98374.95
2019-03-15T21:04:53.599Z,98375.52
2019-03-15T21:07:21.597Z,98361.95
2019-03-15T21:09:49.754Z,98374.00
2019-03-15T21:12:17.801Z,98370.30
2019-03-15T21:14:46.531Z,98335.45
2019-03-15T21:17:14.707Z,98318.92
2019-03-15T21:19:43.043Z,98340.83
2019-03-15T21:22:11.031Z,98359.11
2019-03-15T21:24:39.073Z,98374.62
2019-03-15T21:27:07.621Z,98340.84
2019-03-15T21:29:35.649Z,98332.13
2019-03-15T21:32:03.720Z,98366.07
2019-03-15T21:34:31.883Z,98334.88
2019-03-15T21:37:00.030Z,98351.13
2019-03-15T21:39:28.054Z,98347.08
2019-03-15T21:41:56.215Z,98329.91
2019-03-15T21:44:24.698Z,98323.41
2019-03-15T21:46:52.784Z,98332.82
2019-03-15T21:49:20.953Z,98335.34
2019-03-15T21:51:49.040Z,98358.38
2019-03-15T21:54:17.259Z,98358.31
2019-03-15T21:56:45.464Z,98341.53
2019-03-15T21:59:13.577Z,98348.44
2019-03-15T22:01:41.559Z,98349.86
2019-03-15T22:04:10.094Z,98355.31
2019-03-15T22:06:38.869Z,98352.03
2019-03-15T22:09:07.316Z,98361.53
2019-03-15T22:11:35.442Z,98348.70
2019-03-15T22:14:04.353Z,98348.33
2019-03-15T22:16:33.155Z,98351.28
2019-03-15T22:19:01.134Z,98347.76
2019-03-15T22:21:29.155Z,98343.95
2019-03-15T22:23:57.316Z,98337.88
2019-03-15T22:26:25.244Z,98340.57
2019-03-15T22:28:53.784Z,98347.91
2019-03-15T22:31:22.231Z,98346.27
2019-03-15T22:33:50.564Z,98338.88
2019-03-15T22:36:18.819Z,98340.37
2019-03-15T22:38:46.963Z,98328.36
2019-03-15T22:41:14.998Z,98344.06
2019-03-15T22:43:43.048Z,98339.04
2019-03-15T22:46:11.071Z,98333.22
2019-03-15T22:48:41.836Z,98318.95
2019-03-15T22:54:43.633Z,98331.52
2019-03-15T22:57:11.618Z,98341.88
2019-03-15T22:59:39.695Z,98354.25
2019-03-15T23:02:08.030Z,98344.90
2019-03-15T23:04:36.149Z,98354.25
2019-03-15T23:07:05.114Z,98345.64
2019-03-15T23:09:33.166Z,98346.64
2019-03-15T23:12:01.416Z,98360.64
2019-03-15T23:14:29.316Z,98354.56
2019-03-15T23:16:57.240Z,98361.05
2019-03-15T23:19:25.177Z,98367.02
2019-03-15T23:21:53.369Z,98364.50
2019-03-15T23:24:21.374Z,98362.28
2019-03-15T23:26:49.480Z,98363.06
2019-03-15T23:29:17.597Z,98377.12
